Time;durP1;ratioP1;P1;durP2;ratioP2;P2;SDS_P1;SDS_P2;PMS_P1;PMS_P2;Temp;Humidity;BMP_temperature;BMP_pressure;BME280_temperature;BME280_humidity;BME280_pressure;Samples;Min_cycle;Max_cycle;Signal;HPM_P1;HPM_P2
2021/05/16 00:01:22;;;;;;;;;;;;;;;20.74;46.59;99758.00;2209933;39;114065;-54
2021/05/16 00:02:54;;;;;;;;;;;;;;;20.75;46.62;99754.06;2207603;39;113697;-54
2021/05/16 00:04:26;;;;;;;;;;;;;;;20.74;46.31;99755.19;2212428;39;113897;-54
2021/05/16 00:05:58;;;;;;;;;;;;;;;20.71;46.67;99750.28;2208259;39;114805;-54
2021/05/16 00:07:30;;;;;;;;;;;;;;;20.70;46.81;99754.25;2208932;39;114841;-54
2021/05/16 00:09:01;;;;;;;;;;;;;;;20.71;47.09;99753.09;2210134;39;114921;-54
2021/05/16 00:10:33;;;;;;;;;;;;;;;20.73;46.94;99752.72;2210035;39;114853;-54
2021/05/16 00:12:05;;;;;;;;;;;;;;;20.71;46.72;99753.09;2210693;39;115518;-54
2021/05/16 00:13:36;;;;;;;;;;;;;;;20.70;46.90;99751.44;2208700;39;115116;-54
2021/05/16 00:15:09;;;;;;;;;;;;;;;20.70;46.73;99753.41;2210103;39;115239;-54
2021/05/16 00:16:41;;;;;;;;;;;;;;;20.71;46.55;99747.47;2210014;39;114440;-54
2021/05/16 00:18:13;;;;;;;;;;;;;;;20.70;46.78;99740.22;2207912;39;117436;-54
2021/05/16 00:19:46;;;;;;;;;;;;;;;20.68;46.80;99745.31;2209112;39;114976;-54
2021/05/16 00:21:18;;;;;;;;;;;;;;;20.67;47.12;99745.69;2210624;39;115386;-54
2021/05/16 00:22:50;;;;;;;;;;;;;;;20.67;46.99;99742.88;2209707;39;113891;-56
2021/05/16 00:24:22;;;;;;;;;;;;;;;20.67;47.03;99742.88;2210391;39;114582;-54
2021/05/16 00:25:54;;;;;;;;;;;;;;;20.67;46.68;99749.28;2212985;39;113808;-54
2021/05/16 00:27:26;;;;;;;;;;;;;;;20.65;47.21;99740.41;2209144;39;115651;-54
2021/05/16 00:28:57;;;;;;;;;;;;;;;20.66;46.92;99741.22;2210517;39;114503;-54
2021/05/16 00:30:29;;;;;;;;;;;;;;;20.65;47.19;99737.59;2209265;39;114556;-54
2021/05/16 00:32:01;;;;;;;;;;;;;;;20.63;47.07;99745.50;2211157;39;115431;-54
2021/05/16 00:33:33;;;;;;;;;;;;;;;20.63;47.40;99741.88;2209156;39;115843;-54
2021/05/16 00:35:06;;;;;;;;;;;;;;;20.64;47.27;99740.72;2209159;39;115505;-55
2021/05/16 00:36:37;;;;;;;;;;;;;;;20.63;47.35;99742.72;2211175;39;115474;-54
2021/05/16 00:38:09;;;;;;;;;;;;;;;20.65;47.62;99745.19;2206469;39;115832;-55
2021/05/16 00:39:41;;;;;;;;;;;;;;;20.63;47.21;99739.91;2210107;39;116039;-54
2021/05/16 00:41:12;;;;;;;;;;;;;;;20.63;47.55;99744.69;2210019;39;115515;-54
2021/05/16 00:42:45;;;;;;;;;;;;;;;20.63;47.47;99737.09;2211398;39;115476;-55
2021/05/16 00:44:17;;;;;;;;;;;;;;;20.61;47.42;99733.81;2211034;39;114805;-53
2021/05/16 00:45:48;;;;;;;;;;;;;;;20.63;47.28;99736.25;2210482;39;115444;-54
2021/05/16 00:47:20;;;;;;;;;;;;;;;20.62;47.46;99731.84;2210137;39;114854;-54
2021/05/16 00:48:52;;;;;;;;;;;;;;;20.62;47.62;99734.66;2210896;39;115463;-53
2021/05/16 00:50:25;;;;;;;;;;;;;;;20.62;47.29;99729.84;2210947;39;113624;-55
2021/05/16 00:51:57;;;;;;;;;;;;;;;20.59;47.26;99730.50;2210999;39;114334;-54
2021/05/16 00:53:29;;;;;;;;;;;;;;;20.62;47.44;99735.47;2205829;39;113860;-54
2021/05/16 00:55:01;;;;;;;;;;;;;;;20.59;47.47;99733.31;2210265;39;114476;-54
2021/05/16 00:56:33;;;;;;;;;;;;;;;20.62;47.22;99731.84;2207447;39;114178;-54
2021/05/16 00:58:07;;;;;;;;;;;;;;;20.60;47.27;99737.78;2211077;39;114232;-54
2021/05/16 00:59:38;;;;;;;;;;;;;;;20.59;47.31;99730.50;2209975;39;113644;-54
2021/05/16 01:01:13;;;;;;;;;;;;;;;20.59;47.84;99733.31;2210114;39;114227;-54
2021/05/16 01:02:45;;;;;;;;;;;;;;;20.57;47.28;99727.25;2206806;39;113661;-54
2021/05/16 01:04:16;;;;;;;;;;;;;;;20.58;47.59;99726.06;2205867;39;114220;-54
2021/05/16 01:07:20;;;;;;;;;;;;;;;20.58;47.64;99731.66;2208489;39;113960;-54
2021/05/16 01:08:56;;;;;;;;;;;;;;;20.57;47.56;99724.44;2208485;39;113724;-54
2021/05/16 01:10:28;;;;;;;;;;;;;;;20.57;47.67;99721.63;2212185;39;113578;-55
2021/05/16 01:12:02;;;;;;;;;;;;;;;20.56;47.52;99722.78;2208763;39;114873;-54
2021/05/16 01:13:35;;;;;;;;;;;;;;;20.56;47.59;99728.41;2208331;39;114170;-54
2021/05/16 01:15:08;;;;;;;;;;;;;;;20.57;47.56;99724.44;2210461;39;115195;-53
2021/05/16 01:16:39;;;;;;;;;;;;;;;20.55;47.64;99732.34;2208332;39;115399;-54
2021/05/16 01:18:11;;;;;;;;;;;;;;;20.54;47.75;99725.09;2206717;39;114847;-54
2021/05/16 01:19:43;;;;;;;;;;;;;;;20.55;47.51;99721.13;2209900;39;114755;-54
2021/05/16 01:21:20;;;;;;;;;;;;;;;20.54;47.34;99719.47;2210873;39;114801;-54
2021/05/16 01:22:53;;;;;;;;;;;;;;;20.54;47.46;99725.09;2210835;39;114877;-54
2021/05/16 01:24:27;;;;;;;;;;;;;;;20.55;47.44;99728.72;2207243;39;114846;-54
2021/05/16 01:26:01;;;;;;;;;;;;;;;20.53;47.70;99729.09;2205354;39;115129;-54
2021/05/16 01:27:33;;;;;;;;;;;;;;;20.53;47.48;99719.84;2202116;39;114881;-54
2021/05/16 01:29:05;;;;;;;;;;;;;;;20.53;47.35;99731.06;2207012;39;115331;-54
2021/05/16 01:30:37;;;;;;;;;;;;;;;20.53;47.27;99723.47;2210563;39;114741;-54
2021/05/16 01:32:11;;;;;;;;;;;;;;;20.52;47.59;99727.44;2212489;39;115446;-54
2021/05/16 01:33:43;;;;;;;;;;;;;;;20.50;47.38;99729.72;2205878;39;115658;-55
2021/05/16 01:35:15;;;;;;;;;;;;;;;20.49;47.84;99730.09;2209038;39;115499;-54
2021/05/16 01:36:48;;;;;;;;;;;;;;;20.50;48.00;99728.91;2207367;39;115984;-54
2021/05/16 01:38:20;;;;;;;;;;;;;;;20.49;47.87;99725.28;2210700;39;114535;-54
2021/05/16 01:39:52;;;;;;;;;;;;;;;20.49;47.67;99725.28;2211834;39;115583;-54
2021/05/16 01:41:24;;;;;;;;;;;;;;;20.49;47.77;99724.47;2206248;39;115700;-54
2021/05/16 01:42:58;;;;;;;;;;;;;;;20.51;47.76;99724.94;2210453;39;114572;-54
2021/05/16 01:44:31;;;;;;;;;;;;;;;20.50;47.62;99724.13;2205287;39;115724;-54
2021/05/16 01:46:04;;;;;;;;;;;;;;;20.48;47.78;99720.84;2208909;39;115471;-54
2021/05/16 01:47:37;;;;;;;;;;;;;;;20.49;47.93;99718.88;2205026;39;114529;-55
2021/05/16 01:49:09;;;;;;;;;;;;;;;20.48;47.85;99711.59;2205661;39;115573;-54
2021/05/16 01:50:42;;;;;;;;;;;;;;;20.49;47.28;99716.06;2207863;39;115548;-54
2021/05/16 01:52:14;;;;;;;;;;;;;;;20.46;47.99;99723.16;2205137;39;115517;-54
2021/05/16 01:53:48;;;;;;;;;;;;;;;20.46;47.77;99716.72;2211346;39;115574;-55
2021/05/16 01:55:20;;;;;;;;;;;;;;;20.46;47.74;99717.53;2210326;39;113542;-54
2021/05/16 01:56:52;;;;;;;;;;;;;;;20.48;47.67;99717.22;2209932;39;113863;-54
2021/05/16 01:58:25;;;;;;;;;;;;;;;20.46;47.57;99717.53;2208917;39;113818;-55
2021/05/16 01:59:57;;;;;;;;;;;;;;;20.46;47.94;99720.34;2206906;39;114574;-54
2021/05/16 02:01:31;;;;;;;;;;;;;;;20.46;47.94;99720.34;2207807;39;113954;-54
2021/05/16 02:03:05;;;;;;;;;;;;;;;20.45;48.06;99713.09;2209588;39;113898;-55
2021/05/16 02:04:38;;;;;;;;;;;;;;;20.43;47.91;99712.63;2207207;39;113714;-54
2021/05/16 02:06:10;;;;;;;;;;;;;;;20.41;47.69;99707.34;2209618;39;113593;-55
2021/05/16 02:07:42;;;;;;;;;;;;;;;20.43;48.12;99709.81;2209519;39;113810;-54
2021/05/16 02:09:15;;;;;;;;;;;;;;;20.42;47.77;99711.78;2209193;39;113592;-54
2021/05/16 02:10:47;;;;;;;;;;;;;;;20.40;47.97;99711.28;2208535;39;113726;-54
2021/05/16 02:12:21;;;;;;;;;;;;;;;20.41;48.01;99715.75;2209580;39;113818;-54
2021/05/16 02:13:53;;;;;;;;;;;;;;;20.42;47.86;99716.59;2209962;39;113842;-54
2021/05/16 02:15:26;;;;;;;;;;;;;;;20.40;48.22;99716.91;2208295;39;114005;-54
2021/05/16 02:16:59;;;;;;;;;;;;;;;20.42;47.96;99710.97;2211665;39;113999;-54
2021/05/16 02:18:32;;;;;;;;;;;;;;;20.41;48.13;99712.13;2205342;39;114389;-54
2021/05/16 02:20:06;;;;;;;;;;;;;;;20.40;48.17;99711.28;2200414;39;115172;-54
2021/05/16 02:21:37;;;;;;;;;;;;;;;20.39;47.98;99711.66;2208612;39;115864;-54
2021/05/16 02:23:10;;;;;;;;;;;;;;;20.39;48.33;99706.03;2212630;39;115012;-54
2021/05/16 02:24:44;;;;;;;;;;;;;;;20.39;47.91;99704.06;2214043;39;114803;-54
2021/05/16 02:26:15;;;;;;;;;;;;;;;20.39;48.08;99706.88;2209481;39;114083;-54
2021/05/16 02:27:47;;;;;;;;;;;;;;;20.38;48.37;99707.19;2209649;39;115468;-54
2021/05/16 02:29:19;;;;;;;;;;;;;;;20.38;48.23;99712.81;2215903;39;115189;-54
2021/05/16 02:30:51;;;;;;;;;;;;;;;20.36;48.30;99709.50;2217200;39;114857;-54
2021/05/16 02:32:23;;;;;;;;;;;;;;;20.35;48.76;99699.47;2216982;39;114724;-54
2021/05/16 02:33:55;;;;;;;;;;;;;;;20.37;48.77;99705.53;2214230;39;114780;-54
2021/05/16 02:35:27;;;;;;;;;;;;;;;20.39;48.63;99706.03;2214794;39;114604;-54
2021/05/16 02:37:00;;;;;;;;;;;;;;;20.37;48.55;99703.56;2212202;39;115385;-55
2021/05/16 02:38:32;;;;;;;;;;;;;;;20.37;48.46;99703.56;2216177;39;114915;-54
2021/05/16 02:40:04;;;;;;;;;;;;;;;20.37;48.64;99703.56;2209527;39;116436;-53
2021/05/16 02:41:36;;;;;;;;;;;;;;;20.36;48.27;99699.09;2214722;39;115454;-54
2021/05/16 02:43:08;;;;;;;;;;;;;;;20.37;48.19;99699.94;2216007;39;114598;-54
2021/05/16 02:44:40;;;;;;;;;;;;;;;20.37;48.67;99702.75;2209404;39;114743;-54
2021/05/16 02:46:12;;;;;;;;;;;;;;;20.38;48.67;99699.59;2202855;39;115469;-54
2021/05/16 02:47:45;;;;;;;;;;;;;;;20.36;48.34;99701.09;2210061;39;114580;-54
2021/05/16 02:49:17;;;;;;;;;;;;;;;20.34;48.40;99707.06;2209375;39;115884;-53
2021/05/16 02:50:49;;;;;;;;;;;;;;;20.35;48.48;99700.25;2212128;39;115447;-54
2021/05/16 02:52:22;;;;;;;;;;;;;;;20.37;48.30;99697.13;2213085;39;115355;-54
2021/05/16 02:53:54;;;;;;;;;;;;;;;20.36;48.30;99703.91;2211982;39;115558;-54
2021/05/16 02:55:26;;;;;;;;;;;;;;;20.35;48.19;99696.66;2208449;39;115884;-54
2021/05/16 02:56:58;;;;;;;;;;;;;;;20.33;48.10;99701.78;2209778;39;115582;-54
2021/05/16 02:58:30;;;;;;;;;;;;;;;20.32;48.32;99695.34;2212388;39;115509;-54
2021/05/16 03:00:05;;;;;;;;;;;;;;;20.34;48.47;99700.63;2216013;39;117109;-54
2021/05/16 03:01:36;;;;;;;;;;;;;;;20.33;47.92;99693.34;2214611;39;113615;-54
2021/05/16 03:03:08;;;;;;;;;;;;;;;20.31;48.13;99696.50;2208903;39;113811;-54
2021/05/16 03:04:40;;;;;;;;;;;;;;;20.31;47.97;99698.47;2212901;39;114258;-54
2021/05/16 03:06:13;;;;;;;;;;;;;;;20.32;48.37;99702.94;2209506;39;113590;-54
2021/05/16 03:07:45;;;;;;;;;;;;;;;20.31;48.12;99704.06;2214738;39;113844;-54
2021/05/16 03:09:18;;;;;;;;;;;;;;;20.31;47.92;99698.47;2207021;39;113739;-54
2021/05/16 03:10:50;;;;;;;;;;;;;;;20.32;48.14;99694.50;2205847;39;113954;-54
2021/05/16 03:12:22;;;;;;;;;;;;;;;20.30;47.93;99697.69;2213741;39;114201;-54
2021/05/16 03:13:54;;;;;;;;;;;;;;;20.31;48.00;99698.47;2210702;39;113722;-54
2021/05/16 03:15:26;;;;;;;;;;;;;;;20.30;47.89;99692.06;2204730;39;113915;-54
2021/05/16 03:16:59;;;;;;;;;;;;;;;20.30;48.15;99691.25;2213775;39;114545;-54
2021/05/16 03:18:32;;;;;;;;;;;;;;;20.28;48.59;99688.72;2206286;39;113774;-54
2021/05/16 03:20:04;;;;;;;;;;;;;;;20.32;48.33;99694.50;2209186;39;114032;-54
2021/05/16 03:21:36;;;;;;;;;;;;;;;20.29;48.31;99686.75;2213237;39;113751;-54
2021/05/16 03:23:08;;;;;;;;;;;;;;;20.27;48.47;99681.47;2204197;39;114790;-54
2021/05/16 03:24:40;;;;;;;;;;;;;;;20.26;48.45;99688.22;2211433;39;117449;-55
2021/05/16 03:26:13;;;;;;;;;;;;;;;20.26;48.08;99677.00;2210469;39;114788;-54
2021/05/16 03:27:45;;;;;;;;;;;;;;;20.29;48.30;99679.16;2215631;39;114776;-55
2021/05/16 03:29:16;;;;;;;;;;;;;;;20.29;48.06;99679.16;2217369;39;114890;-54
2021/05/16 03:30:49;;;;;;;;;;;;;;;20.29;48.33;99686.75;2218153;39;115141;-54
2021/05/16 03:32:23;;;;;;;;;;;;;;;20.28;48.18;99677.50;2216393;39;113949;-55
2021/05/16 03:33:56;;;;;;;;;;;;;;;20.28;47.94;99683.13;2215971;39;114728;-54
2021/05/16 03:35:28;;;;;;;;;;;;;;;20.25;48.05;99686.59;2207586;39;115117;-54
2021/05/16 03:37:00;;;;;;;;;;;;;;;20.27;48.18;99689.06;2208223;39;114770;-54
2021/05/16 03:38:32;;;;;;;;;;;;;;;20.26;47.99;99673.41;2215246;39;114928;-54
2021/05/16 03:40:05;;;;;;;;;;;;;;;20.27;48.08;99686.25;2208555;39;114772;-54
2021/05/16 03:41:37;;;;;;;;;;;;;;;20.23;48.16;99683.31;2208725;39;114788;-54
2021/05/16 03:43:09;;;;;;;;;;;;;;;20.26;47.80;99679.81;2210965;39;114780;-54
2021/05/16 03:44:42;;;;;;;;;;;;;;;20.25;48.03;99681.00;2215151;39;115545;-54
2021/05/16 03:46:14;;;;;;;;;;;;;;;20.25;48.09;99680.19;2209436;39;115789;-54
2021/05/16 03:47:45;;;;;;;;;;;;;;;20.26;47.81;99681.81;2212014;39;115717;-54
2021/05/16 03:49:17;;;;;;;;;;;;;;;20.23;48.02;99677.69;2204236;39;115378;-54
2021/05/16 03:50:49;;;;;;;;;;;;;;;20.22;48.11;99680.81;2208929;39;115508;-54
2021/05/16 03:52:21;;;;;;;;;;;;;;;20.22;48.02;99673.25;2200859;39;115534;-55
2021/05/16 03:53:53;;;;;;;;;;;;;;;20.22;47.92;99678.84;2206227;39;116374;-54
2021/05/16 03:55:25;;;;;;;;;;;;;;;20.22;48.20;99672.41;2206879;39;114524;-54
2021/05/16 03:56:57;;;;;;;;;;;;;;;20.23;47.71;99679.69;2209741;39;115042;-54
2021/05/16 03:58:28;;;;;;;;;;;;;;;20.23;48.17;99676.88;2217283;39;115477;-55
2021/05/16 04:00:02;;;;;;;;;;;;;;;20.24;48.28;99681.31;2204465;39;115955;-54
2021/05/16 04:01:34;;;;;;;;;;;;;;;20.22;47.87;99681.66;2214662;39;115523;-54
2021/05/16 04:03:06;;;;;;;;;;;;;;;20.23;47.63;99679.69;2216500;39;115167;-54
2021/05/16 04:04:38;;;;;;;;;;;;;;;20.20;48.34;99684.00;2216722;39;115576;-54
2021/05/16 04:06:10;;;;;;;;;;;;;;;20.20;47.88;99680.38;2211606;39;115520;-54
2021/05/16 04:07:43;;;;;;;;;;;;;;;20.18;48.09;99680.69;2213714;39;113940;-54
2021/05/16 04:09:15;;;;;;;;;;;;;;;20.19;48.13;99687.94;2216941;39;114045;-54
2021/05/16 04:10:48;;;;;;;;;;;;;;;20.21;48.06;99684.81;2209082;39;114087;-54
2021/05/16 04:12:20;;;;;;;;;;;;;;;20.20;47.97;99685.97;2214527;39;114112;-54
2021/05/16 04:13:52;;;;;;;;;;;;;;;20.22;47.92;99678.03;2216338;39;113805;-53
2021/05/16 04:15:24;;;;;;;;;;;;;;;20.19;48.02;99685.16;2217219;39;113711;-54
2021/05/16 04:16:56;;;;;;;;;;;;;;;20.19;48.06;99693.56;2216630;39;113970;-53
2021/05/16 04:18:28;;;;;;;;;;;;;;;20.20;48.11;99680.38;2216528;39;113771;-54
2021/05/16 04:20:01;;;;;;;;;;;;;;;20.18;48.20;99691.06;2217303;39;114224;-54
2021/05/16 04:21:32;;;;;;;;;;;;;;;20.19;48.21;99689.94;2216076;39;113879;-54
2021/05/16 04:23:04;;;;;;;;;;;;;;;20.18;48.02;99688.28;2209205;39;113928;-54
2021/05/16 04:24:36;;;;;;;;;;;;;;;20.19;48.07;99687.13;2213440;39;113894;-54
2021/05/16 04:26:08;;;;;;;;;;;;;;;20.18;48.06;99682.66;2210390;39;114002;-54
2021/05/16 04:27:41;;;;;;;;;;;;;;;20.14;47.90;99685.31;2208155;39;114078;-54
2021/05/16 04:29:13;;;;;;;;;;;;;;;20.17;47.84;99681.84;2212827;39;115160;-53
2021/05/16 04:30:48;;;;;;;;;;;;;;;20.15;48.34;99688.97;2209435;39;114843;-54
2021/05/16 04:32:21;;;;;;;;;;;;;;;20.15;48.18;99689.78;2214201;39;114684;-54
2021/05/16 04:33:54;;;;;;;;;;;;;;;20.15;47.93;99694.56;2207818;39;114754;-54
2021/05/16 04:35:25;;;;;;;;;;;;;;;20.13;48.05;99689.28;2205291;39;114806;-54
2021/05/16 04:36:57;;;;;;;;;;;;;;;20.15;48.25;99684.19;2215029;39;114798;-54
2021/05/16 04:38:30;;;;;;;;;;;;;;;20.16;47.88;99696.22;2212428;39;115021;-54
2021/05/16 04:40:03;;;;;;;;;;;;;;;20.15;47.94;99691.75;2214818;39;114788;-54
2021/05/16 04:41:36;;;;;;;;;;;;;;;20.13;48.17;99688.47;2210277;39;114712;-54
2021/05/16 04:43:08;;;;;;;;;;;;;;;20.13;48.04;99694.88;2215067;39;115140;-54
2021/05/16 04:44:41;;;;;;;;;;;;;;;20.14;48.54;99690.09;2217035;39;114818;-54
2021/05/16 04:46:13;;;;;;;;;;;;;;;20.13;48.28;99691.25;2210042;39;114772;-54
2021/05/16 04:47:45;;;;;;;;;;;;;;;20.12;47.86;99687.66;2204421;39;115178;-54
2021/05/16 04:49:18;;;;;;;;;;;;;;;20.15;48.17;99694.56;2215935;39;114962;-54
2021/05/16 04:50:50;;;;;;;;;;;;;;;20.14;47.95;99690.09;2213587;39;115535;-54
2021/05/16 04:52:22;;;;;;;;;;;;;;;20.12;47.97;99692.44;2211155;39;115952;-54
2021/05/16 04:53:54;;;;;;;;;;;;;;;20.12;47.91;99695.25;2214703;39;114533;-54
2021/05/16 04:55:26;;;;;;;;;;;;;;;20.11;48.10;99688.00;2211057;39;115749;-54
2021/05/16 04:56:58;;;;;;;;;;;;;;;20.12;47.59;99693.28;2211419;39;115960;-54
2021/05/16 05:00:06;;;;;;;;;;;;;;;20.11;48.07;99693.59;2209725;39;115511;-54
2021/05/16 05:01:38;;;;;;;;;;;;;;;20.07;48.00;99692.63;2213751;39;115482;-54
2021/05/16 05:03:10;;;;;;;;;;;;;;;20.07;48.07;99685.03;2211283;39;115674;-54
2021/05/16 05:04:41;;;;;;;;;;;;;;;20.08;47.85;99694.28;2209464;39;115504;-54
2021/05/16 05:06:13;;;;;;;;;;;;;;;20.07;48.17;99699.06;2209201;39;115460;-54
2021/05/16 05:07:46;;;;;;;;;;;;;;;20.09;48.21;99702.34;2213601;39;115538;-54
2021/05/16 05:09:19;;;;;;;;;;;;;;;20.06;48.24;99693.78;2213887;39;115534;-54
2021/05/16 05:10:51;;;;;;;;;;;;;;;20.06;48.10;99693.78;2213627;39;115889;-54
2021/05/16 05:12:23;;;;;;;;;;;;;;;20.04;47.87;99701.69;2213329;39;113975;-54
2021/05/16 05:13:55;;;;;;;;;;;;;;;20.04;48.05;99693.28;2213498;39;114146;-54
2021/05/16 05:15:27;;;;;;;;;;;;;;;20.04;48.51;99698.88;2211415;39;113643;-54
2021/05/16 05:16:58;;;;;;;;;;;;;;;20.04;47.98;99698.88;2216161;39;114360;-53
2021/05/16 05:18:32;;;;;;;;;;;;;;;20.03;48.32;99702.88;2217494;39;113716;-54
2021/05/16 05:20:04;;;;;;;;;;;;;;;20.04;48.20;99699.72;2213932;39;113918;-54
2021/05/16 05:21:36;;;;;;;;;;;;;;;20.04;48.21;99704.50;2209011;39;114300;-54
2021/05/16 05:23:08;;;;;;;;;;;;;;;20.04;48.28;99704.50;2207775;39;114366;-54
2021/05/16 05:24:41;;;;;;;;;;;;;;;20.03;47.73;99695.28;2207697;39;113802;-54
2021/05/16 05:26:13;;;;;;;;;;;;;;;20.02;48.06;99698.41;2207630;39;114255;-54
2021/05/16 05:27:44;;;;;;;;;;;;;;;20.02;47.89;99698.41;2214605;39;113922;-54
2021/05/16 05:29:17;;;;;;;;;;;;;;;20.03;47.76;99691.66;2217202;39;114164;-54
2021/05/16 05:30:50;;;;;;;;;;;;;;;20.03;48.35;99697.25;2217201;39;114128;-54
2021/05/16 05:32:22;;;;;;;;;;;;;;;20.01;48.34;99699.56;2210351;39;114212;-54
2021/05/16 05:33:53;;;;;;;;;;;;;;;20.00;47.91;99693.13;2217778;39;114061;-56
2021/05/16 05:35:25;;;;;;;;;;;;;;;20.01;47.82;99693.97;2216648;39;115210;-54
2021/05/16 05:36:57;;;;;;;;;;;;;;;19.98;48.20;99699.09;2217106;39;114731;-54
2021/05/16 05:38:29;;;;;;;;;;;;;;;20.00;48.22;99693.13;2203696;39;114738;-54
2021/05/16 05:40:04;;;;;;;;;;;;;;;19.99;47.90;99695.09;2207462;39;114797;-54
2021/05/16 05:41:36;;;;;;;;;;;;;;;19.99;48.03;99692.31;2206473;39;115243;-53
2021/05/16 05:43:08;;;;;;;;;;;;;;;19.99;48.28;99697.09;2211139;39;114776;-54
2021/05/16 05:44:40;;;;;;;;;;;;;;;19.99;48.04;99694.28;2215022;39;114064;-54
2021/05/16 05:46:12;;;;;;;;;;;;;;;19.98;47.94;99690.69;2213837;39;114825;-54
2021/05/16 05:47:45;;;;;;;;;;;;;;;19.98;48.05;99693.50;2214127;39;114657;-54
2021/05/16 05:49:18;;;;;;;;;;;;;;;19.99;47.91;99694.28;2208619;39;115535;-54
2021/05/16 05:50:49;;;;;;;;;;;;;;;19.97;47.99;99693.81;2215145;39;114798;-54
2021/05/16 05:52:21;;;;;;;;;;;;;;;19.94;47.86;99688.88;2210232;39;115147;-54
2021/05/16 05:53:53;;;;;;;;;;;;;;;19.94;48.17;99692.47;2206812;39;115498;-54
2021/05/16 05:55:25;;;;;;;;;;;;;;;19.95;47.95;99696.94;2212229;39;114830;-54
2021/05/16 05:56:57;;;;;;;;;;;;;;;19.95;47.90;99696.13;2217573;39;115830;-54
2021/05/16 05:58:33;;;;;;;;;;;;;;;19.96;47.76;99695.78;2211936;39;115508;-54
2021/05/16 06:00:07;;;;;;;;;;;;;;;19.95;47.80;99693.31;2214850;39;114863;-55
2021/05/16 06:01:40;;;;;;;;;;;;;;;19.94;48.34;99689.69;2217340;39;115776;-54
2021/05/16 06:03:12;;;;;;;;;;;;;;;19.94;48.25;99689.69;2215494;39;115524;-54
2021/05/16 06:04:48;;;;;;;;;;;;;;;19.94;48.10;99692.47;2216320;39;115847;-54
2021/05/16 06:06:20;;;;;;;;;;;;;;;19.95;48.00;99691.34;2216577;39;115893;-54
2021/05/16 06:07:52;;;;;;;;;;;;;;;19.91;47.97;99692.34;2209251;39;115607;-54
2021/05/16 06:09:24;;;;;;;;;;;;;;;19.92;48.20;99691.19;2214773;39;114841;-54
2021/05/16 06:10:56;;;;;;;;;;;;;;;19.92;47.88;99694.00;2209478;39;114604;-55
2021/05/16 06:12:28;;;;;;;;;;;;;;;19.91;48.10;99690.38;2213095;39;115479;-54
2021/05/16 06:14:00;;;;;;;;;;;;;;;19.91;48.32;99689.53;2212921;39;114548;-55
2021/05/16 06:15:32;;;;;;;;;;;;;;;19.92;47.87;99694.81;2216692;39;115623;-54
2021/05/16 06:17:04;;;;;;;;;;;;;;;19.92;48.00;99689.22;2218730;39;116293;-54
2021/05/16 06:18:36;;;;;;;;;;;;;;;19.92;48.10;99688.38;2209273;39;113893;-54
2021/05/16 06:20:08;;;;;;;;;;;;;;;19.91;47.73;99684.75;2203890;39;113633;-55
2021/05/16 06:21:40;;;;;;;;;;;;;;;19.91;47.95;99689.53;2214636;39;113854;-55
2021/05/16 06:23:13;;;;;;;;;;;;;;;19.91;47.96;99683.94;2216509;39;113739;-54
2021/05/16 06:24:48;;;;;;;;;;;;;;;19.90;48.22;99671.06;2216339;39;113862;-54
2021/05/16 06:26:20;;;;;;;;;;;;;;;19.89;48.36;99680.66;2215756;39;114096;-54
2021/05/16 06:27:52;;;;;;;;;;;;;;;19.91;48.01;99681.13;2213044;39;113903;-54
2021/05/16 06:29:24;;;;;;;;;;;;;;;19.92;48.25;99685.59;2215731;39;113808;-54
2021/05/16 06:30:56;;;;;;;;;;;;;;;19.89;48.41;99687.09;2215550;39;113585;-54
2021/05/16 06:32:28;;;;;;;;;;;;;;;19.90;48.59;99685.09;2216668;39;113680;-53
2021/05/16 06:34:00;;;;;;;;;;;;;;;19.93;48.41;99687.22;2215396;39;113671;-54
2021/05/16 06:35:32;;;;;;;;;;;;;;;19.95;48.58;99680.13;2215236;39;113733;-54
2021/05/16 06:37:04;;;;;;;;;;;;;;;19.99;48.90;99683.91;2209840;39;113905;-55
2021/05/16 06:38:36;;;;;;;;;;;;;;;20.01;48.99;99683.56;2216476;39;113838;-54
2021/05/16 06:40:08;;;;;;;;;;;;;;;20.04;48.91;99688.50;2217435;39;115142;-54
2021/05/16 06:41:41;;;;;;;;;;;;;;;20.04;49.04;99680.09;2207333;39;113837;-54
2021/05/16 06:43:14;;;;;;;;;;;;;;;20.07;49.07;99678.59;2207768;39;114790;-54
2021/05/16 06:44:47;;;;;;;;;;;;;;;20.10;48.88;99681.56;2211839;39;114790;-54
2021/05/16 06:46:19;;;;;;;;;;;;;;;20.14;48.82;99684.50;2208462;39;114856;-55
2021/05/16 06:47:51;;;;;;;;;;;;;;;20.17;48.83;99686.66;2207138;39;114754;-54
2021/05/16 06:49:23;;;;;;;;;;;;;;;20.19;49.03;99689.94;2214004;39;114809;-54
2021/05/16 06:50:55;;;;;;;;;;;;;;;20.22;49.19;99684.47;2206603;39;115225;-54
2021/05/16 06:52:28;;;;;;;;;;;;;;;20.25;49.40;99689.41;2214658;39;114124;-54
2021/05/16 06:54:00;;;;;;;;;;;;;;;20.29;49.43;99684.78;2211837;39;114043;-54
2021/05/16 06:55:32;;;;;;;;;;;;;;;20.33;49.30;99682.97;2206071;39;113905;-54
2021/05/16 06:57:04;;;;;;;;;;;;;;;20.38;49.24;99690.38;2213209;39;114802;-54
2021/05/16 06:58:35;;;;;;;;;;;;;;;20.42;49.41;99682.91;2216803;39;115109;-54
2021/05/16 07:00:08;;;;;;;;;;;;;;;20.46;49.40;99686.69;2217851;39;114806;-54
2021/05/16 07:01:39;;;;;;;;;;;;;;;20.51;49.69;99680.88;2210837;39;116056;-54
2021/05/16 07:03:15;;;;;;;;;;;;;;;20.56;49.54;99682.66;2209000;39;115443;-54
2021/05/16 07:04:48;;;;;;;;;;;;;;;20.61;49.27;99683.31;2213525;39;114635;-54
2021/05/16 07:06:20;;;;;;;;;;;;;;;20.65;49.13;99687.06;2216267;39;115643;-54
2021/05/16 07:07:52;;;;;;;;;;;;;;;20.70;49.04;99684.06;2215580;39;115485;-54
2021/05/16 07:09:25;;;;;;;;;;;;;;;20.74;48.87;99679.41;2208188;39;115571;-54
2021/05/16 07:10:57;;;;;;;;;;;;;;;20.79;48.71;99684.84;2213265;39;115526;-55
2021/05/16 07:12:29;;;;;;;;;;;;;;;20.84;48.58;99686.63;2216619;39;115948;-55
2021/05/16 07:14:01;;;;;;;;;;;;;;;20.90;48.47;99684.41;2216438;39;114681;-54
2021/05/16 07:15:34;;;;;;;;;;;;;;;20.94;48.24;99689.00;2215540;39;115478;-54
2021/05/16 07:17:05;;;;;;;;;;;;;;;20.99;48.25;99690.78;2216804;39;115516;-54
2021/05/16 07:18:37;;;;;;;;;;;;;;;21.04;48.29;99687.75;2216706;39;115800;-54
2021/05/16 07:20:11;;;;;;;;;;;;;;;21.08;47.79;99685.91;2216773;39;115284;-54
2021/05/16 07:21:43;;;;;;;;;;;;;;;21.14;47.49;99693.00;2209420;39;115600;-54
2021/05/16 07:23:16;;;;;;;;;;;;;;;21.17;47.91;99687.53;2216375;39;115917;-54
2021/05/16 07:24:47;;;;;;;;;;;;;;;21.21;47.55;99684.88;2216694;39;113938;-54
2021/05/16 07:26:20;;;;;;;;;;;;;;;21.27;47.36;99683.47;2215891;39;113596;-54
2021/05/16 07:27:53;;;;;;;;;;;;;;;21.31;47.49;99681.63;2203555;39;114067;-55
2021/05/16 07:29:26;;;;;;;;;;;;;;;21.35;47.17;99678.97;2214734;39;113817;-54
2021/05/16 07:30:59;;;;;;;;;;;;;;;21.38;47.35;99676.28;2216447;39;114127;-54
2021/05/16 07:32:30;;;;;;;;;;;;;;;21.44;47.20;99685.31;2215379;39;113732;-54
2021/05/16 07:34:03;;;;;;;;;;;;;;;21.47;46.81;99679.81;2207880;39;113849;-54
2021/05/16 07:35:35;;;;;;;;;;;;;;;21.52;46.68;99679.63;2203815;39;114010;-54
2021/05/16 07:37:07;;;;;;;;;;;;;;;21.56;46.83;99680.56;2211228;39;113883;-54
2021/05/16 07:38:39;;;;;;;;;;;;;;;21.59;46.63;99677.03;2216558;39;113762;-54
2021/05/16 07:40:12;;;;;;;;;;;;;;;21.63;46.39;99675.19;2216865;39;113703;-54
2021/05/16 07:41:44;;;;;;;;;;;;;;;21.67;46.53;99681.75;2208811;39;114015;-54
2021/05/16 07:43:17;;;;;;;;;;;;;;;21.71;46.57;99670.66;2208543;39;113875;-54
2021/05/16 07:44:49;;;;;;;;;;;;;;;21.74;46.50;99676.41;2219622;39;113935;-54
2021/05/16 07:46:22;;;;;;;;;;;;;;;21.78;45.94;99676.53;2209645;39;117840;-54
2021/05/16 07:47:53;;;;;;;;;;;;;;;21.82;46.26;99673.81;2210184;39;114756;-55
2021/05/16 07:49:25;;;;;;;;;;;;;;;21.85;46.00;99668.31;2209861;39;114730;-54
2021/05/16 07:50:58;;;;;;;;;;;;;;;21.89;45.98;99663.66;2212971;39;114800;-54
2021/05/16 07:52:30;;;;;;;;;;;;;;;21.93;45.96;99666.63;2206186;39;113923;-56
2021/05/16 07:54:03;;;;;;;;;;;;;;;21.96;45.86;99669.56;2212775;39;115253;-54
2021/05/16 07:55:37;;;;;;;;;;;;;;;22.00;45.60;99664.88;2207278;39;113855;-55
2021/05/16 07:57:09;;;;;;;;;;;;;;;22.04;45.75;99657.38;2206607;39;113865;-54